Time;durP1;ratioP1;P1;durP2;ratioP2;P2;SDS_P1;SDS_P2;PMS_P1;PMS_P2;Temp;Humidity;BMP_temperature;BMP_pressure;BME280_temperature;BME280_humidity;BME280_pressure;Samples;Min_cycle;Max_cycle;Signal;HPM_P1;HPM_P2
2022/08/06 00:02:09;;;;;;;5.20;3.10;;;;;;;;;;5060112;28;20586;-65
2022/08/06 00:04:34;;;;;;;4.20;1.90;;;;;;;;;;5055980;28;20275;-65
2022/08/06 00:06:59;;;;;;;3.85;1.92;;;;;;;;;;5061270;28;20196;-66
2022/08/06 00:09:30;;;;;;;2.97;1.63;;;;;;;;;;5057908;28;20260;-66
2022/08/06 00:11:56;;;;;;;3.50;1.83;;;;;;;;;;5065424;28;20192;-66
2022/08/06 00:14:22;;;;;;;4.43;2.10;;;;;;;;;;5065104;28;20201;-66
2022/08/06 00:16:47;;;;;;;3.38;2.05;;;;;;;;;;5052295;28;20236;-66
2022/08/06 00:19:12;;;;;;;4.78;2.10;;;;;;;;;;5051723;28;20224;-66
2022/08/06 00:21:38;;;;;;;7.68;2.35;;;;;;;;;;5052316;28;20192;-66
2022/08/06 00:24:03;;;;;;;4.95;1.92;;;;;;;;;;5051840;28;20552;-66
2022/08/06 00:26:29;;;;;;;2.38;2.17;;;;;;;;;;5056111;28;20580;-66
2022/08/06 00:28:54;;;;;;;4.70;2.05;;;;;;;;;;5061255;28;20220;-66
2022/08/06 00:31:20;;;;;;;3.85;2.17;;;;;;;;;;5061414;28;20224;-66
2022/08/06 00:33:45;;;;;;;7.20;2.53;;;;;;;;;;5071738;28;20184;-65
2022/08/06 00:36:10;;;;;;;7.45;2.65;;;;;;;;;;5057374;28;20185;-65
2022/08/06 00:38:36;;;;;;;7.03;2.80;;;;;;;;;;5059517;28;20283;-66
2022/08/06 00:41:02;;;;;;;5.32;2.25;;;;;;;;;;5051633;28;20212;-65
2022/08/06 00:43:28;;;;;;;9.55;2.72;;;;;;;;;;5056999;28;20217;-66
2022/08/06 00:45:53;;;;;;;5.70;2.55;;;;;;;;;;5054708;28;20674;-65
2022/08/06 00:48:18;;;;;;;6.22;2.45;;;;;;;;;;5061425;28;20543;-65
2022/08/06 00:50:44;;;;;;;3.72;2.25;;;;;;;;;;5059410;28;20174;-65
2022/08/06 00:53:09;;;;;;;5.10;2.35;;;;;;;;;;5050796;28;20200;-65
2022/08/06 00:55:34;;;;;;;5.88;2.00;;;;;;;;;;5057113;28;20227;-65
2022/08/06 00:58:00;;;;;;;3.83;2.10;;;;;;;;;;5067362;28;20193;-65
2022/08/06 01:00:25;;;;;;;4.60;1.80;;;;;;;;;;5057660;28;20208;-65
2022/08/06 01:02:51;;;;;;;5.32;2.00;;;;;;;;;;5051860;28;20189;-65
2022/08/06 01:05:16;;;;;;;2.90;1.85;;;;;;;;;;5053182;28;20668;-65
2022/08/06 01:07:42;;;;;;;6.75;2.25;;;;;;;;;;5061858;28;20691;-65
2022/08/06 01:10:07;;;;;;;6.13;2.28;;;;;;;;;;5063679;28;20282;-65
2022/08/06 01:12:33;;;;;;;3.17;1.88;;;;;;;;;;5050922;28;20181;-65
2022/08/06 01:14:58;;;;;;;3.65;1.95;;;;;;;;;;5066743;28;20188;-66
2022/08/06 01:17:31;;;;;;;8.77;2.30;;;;;;;;;;5060519;28;20272;-66
2022/08/06 01:20:22;;;;;;;7.38;2.10;;;;;;;;;;5061388;28;20204;-65
2022/08/06 01:23:05;;;;;;;3.97;1.73;;;;;;;;;;5051034;28;20587;-65
2022/08/06 01:25:36;;;;;;;4.35;1.83;;;;;;;;;;5059324;28;20192;-65
2022/08/06 01:28:12;;;;;;;5.85;1.90;;;;;;;;;;5059009;28;20738;-65
2022/08/06 01:30:44;;;;;;;3.75;1.70;;;;;;;;;;5061485;28;20185;-65
2022/08/06 01:33:16;;;;;;;3.55;1.90;;;;;;;;;;5066001;28;20268;-65
2022/08/06 01:35:47;;;;;;;8.60;2.05;;;;;;;;;;5051138;28;20185;-65
2022/08/06 01:38:34;;;;;;;6.45;2.53;;;;;;;;;;5054480;28;20412;-65
2022/08/06 01:41:04;;;;;;;4.93;2.10;;;;;;;;;;5062563;28;20213;-65
2022/08/06 01:43:32;;;;;;;5.47;2.25;;;;;;;;;;5051041;28;20181;-65
2022/08/06 01:45:58;;;;;;;5.15;1.88;;;;;;;;;;5060825;28;20694;-65
2022/08/06 01:48:26;;;;;;;7.72;2.55;;;;;;;;;;5051774;28;20207;-65
2022/08/06 01:50:57;;;;;;;3.53;1.52;;;;;;;;;;5058814;28;20587;-65
2022/08/06 01:53:29;;;;;;;3.13;2.13;;;;;;;;;;5059906;28;20620;-65
2022/08/06 01:55:59;;;;;;;7.90;2.33;;;;;;;;;;5050748;28;20189;-65
2022/08/06 01:58:32;;;;;;;3.25;2.15;;;;;;;;;;5054037;28;20184;-65
2022/08/06 02:00:59;;;;;;;4.28;2.10;;;;;;;;;;5050480;28;20201;-65
2022/08/06 02:03:30;;;;;;;7.65;2.40;;;;;;;;;;5063383;28;20189;-65
2022/08/06 02:05:57;;;;;;;5.85;2.40;;;;;;;;;;5050777;28;20213;-65
2022/08/06 02:08:27;;;;;;;6.22;2.42;;;;;;;;;;5053497;28;20264;-65
2022/08/06 02:10:54;;;;;;;5.55;2.40;;;;;;;;;;5049260;28;20205;-65
2022/08/06 02:13:21;;;;;;;5.10;2.45;;;;;;;;;;5050518;28;20190;-65
2022/08/06 02:15:48;;;;;;;2.20;2.00;;;;;;;;;;5054491;28;20662;-65
2022/08/06 02:18:17;;;;;;;4.25;2.08;;;;;;;;;;5056716;28;20189;-65
2022/08/06 02:20:47;;;;;;;5.45;2.33;;;;;;;;;;5060599;28;20672;-65
2022/08/06 02:23:16;;;;;;;6.70;2.35;;;;;;;;;;5054276;28;20189;-65
2022/08/06 02:25:43;;;;;;;5.07;2.47;;;;;;;;;;5061800;28;20232;-65
2022/08/06 02:28:12;;;;;;;4.78;2.97;;;;;;;;;;5066546;28;20184;-65
2022/08/06 02:30:41;;;;;;;4.63;2.53;;;;;;;;;;5065865;28;20294;-65
2022/08/06 02:33:07;;;;;;;4.53;2.60;;;;;;;;;;5056885;28;20257;-65
2022/08/06 02:35:42;;;;;;;5.28;2.40;;;;;;;;;;5049455;28;20645;-65
2022/08/06 02:38:16;;;;;;;2.47;2.28;;;;;;;;;;5057544;28;20177;-65
2022/08/06 02:40:46;;;;;;;7.05;2.55;;;;;;;;;;5061264;28;20201;-65
2022/08/06 02:43:33;;;;;;;6.22;2.63;;;;;;;;;;5060276;28;20188;-65
2022/08/06 02:46:12;;;;;;;7.25;2.63;;;;;;;;;;5066195;28;20262;-65
2022/08/06 02:48:47;;;;;;;3.72;2.53;;;;;;;;;;5068024;28;20187;-65
2022/08/06 02:51:18;;;;;;;4.90;2.97;;;;;;;;;;5059748;28;20192;-65
2022/08/06 02:54:25;;;;;;;6.63;2.65;;;;;;;;;;5052342;28;20264;-65
2022/08/06 02:56:53;;;;;;;5.32;3.08;;;;;;;;;;5030671;28;20202;-65
2022/08/06 02:59:24;;;;;;;4.47;2.35;;;;;;;;;;5067932;28;20209;-65
2022/08/06 03:01:54;;;;;;;5.90;2.03;;;;;;;;;;5063513;28;20177;-65
2022/08/06 03:04:23;;;;;;;3.33;2.45;;;;;;;;;;5055366;28;20222;-65
2022/08/06 03:06:49;;;;;;;7.85;2.17;;;;;;;;;;5049874;28;20908;-65
2022/08/06 03:09:16;;;;;;;3.53;2.30;;;;;;;;;;5059001;28;20176;-65
2022/08/06 03:11:44;;;;;;;7.15;2.50;;;;;;;;;;5057757;28;20181;-65
2022/08/06 03:14:10;;;;;;;6.50;2.97;;;;;;;;;;5054803;28;20180;-65
2022/08/06 03:16:37;;;;;;;2.50;2.30;;;;;;;;;;5049315;28;20185;-65
2022/08/06 03:19:04;;;;;;;3.95;2.70;;;;;;;;;;5053070;28;20205;-65
2022/08/06 03:21:32;;;;;;;5.28;2.67;;;;;;;;;;5053538;28;20570;-65
2022/08/06 03:23:59;;;;;;;4.13;2.55;;;;;;;;;;5049087;28;20196;-65
2022/08/06 03:26:25;;;;;;;3.63;2.65;;;;;;;;;;5060267;28;20221;-65
2022/08/06 03:28:53;;;;;;;4.70;2.78;;;;;;;;;;5059971;28;20189;-65
2022/08/06 03:31:19;;;;;;;6.25;2.50;;;;;;;;;;5063259;28;20240;-65
2022/08/06 03:33:45;;;;;;;6.50;3.15;;;;;;;;;;5057431;28;20181;-66
2022/08/06 03:36:12;;;;;;;6.30;2.70;;;;;;;;;;5068910;28;20180;-66
2022/08/06 03:38:41;;;;;;;6.10;2.83;;;;;;;;;;5054100;28;20575;-66
2022/08/06 03:41:08;;;;;;;5.55;2.70;;;;;;;;;;5059415;28;20265;-66
2022/08/06 03:43:34;;;;;;;5.82;2.50;;;;;;;;;;5052437;28;20183;-65
2022/08/06 03:46:02;;;;;;;5.85;2.50;;;;;;;;;;5051415;28;20189;-65
2022/08/06 03:48:32;;;;;;;3.67;2.30;;;;;;;;;;5050283;28;20185;-65
2022/08/06 03:51:01;;;;;;;4.20;2.40;;;;;;;;;;5059330;28;20186;-65
2022/08/06 03:53:27;;;;;;;4.72;2.70;;;;;;;;;;5055502;28;20291;-66
2022/08/06 03:55:55;;;;;;;9.80;2.55;;;;;;;;;;5050375;28;20182;-65
2022/08/06 03:58:22;;;;;;;5.53;3.05;;;;;;;;;;5066704;28;20220;-65
2022/08/06 04:00:53;;;;;;;4.07;2.70;;;;;;;;;;5061830;28;20216;-65
2022/08/06 04:03:20;;;;;;;10.63;2.92;;;;;;;;;;5051995;28;20661;-65
2022/08/06 04:05:46;;;;;;;4.35;2.90;;;;;;;;;;5058538;28;20180;-66
2022/08/06 04:08:12;;;;;;;7.68;3.47;;;;;;;;;;5059418;28;20213;-66
2022/08/06 04:10:40;;;;;;;5.00;2.67;;;;;;;;;;5053733;28;20193;-66
2022/08/06 04:13:08;;;;;;;3.92;2.92;;;;;;;;;;5053972;28;20555;-66
2022/08/06 04:15:38;;;;;;;3.85;3.20;;;;;;;;;;5050164;28;20272;-66
2022/08/06 04:18:13;;;;;;;3.88;2.88;;;;;;;;;;5052046;28;20375;-66
2022/08/06 04:20:41;;;;;;;6.03;3.13;;;;;;;;;;5052777;28;20197;-66
2022/08/06 04:23:07;;;;;;;8.23;2.85;;;;;;;;;;5052128;28;20664;-66
2022/08/06 04:25:40;;;;;;;5.53;2.97;;;;;;;;;;5059131;28;20185;-66
2022/08/06 04:28:06;;;;;;;3.38;2.75;;;;;;;;;;5056456;28;20233;-66
2022/08/06 04:30:34;;;;;;;4.38;2.97;;;;;;;;;;5067381;28;20201;-66
2022/08/06 04:33:02;;;;;;;4.63;3.30;;;;;;;;;;5059603;28;20213;-66
2022/08/06 04:35:31;;;;;;;6.10;2.78;;;;;;;;;;5065207;28;20189;-66
2022/08/06 04:38:00;;;;;;;6.05;3.33;;;;;;;;;;5070522;28;20514;-66
2022/08/06 04:40:26;;;;;;;4.07;2.83;;;;;;;;;;5065606;28;20287;-66
2022/08/06 04:42:52;;;;;;;6.53;3.42;;;;;;;;;;5063655;28;20279;-66
2022/08/06 04:45:18;;;;;;;5.20;3.22;;;;;;;;;;5055548;28;20185;-66
2022/08/06 04:47:44;;;;;;;6.35;3.20;;;;;;;;;;5059203;28;20709;-66
2022/08/06 04:50:10;;;;;;;6.60;3.20;;;;;;;;;;5065304;28;20182;-66
2022/08/06 04:52:36;;;;;;;9.60;3.45;;;;;;;;;;5053963;28;20655;-66
2022/08/06 04:55:01;;;;;;;5.15;2.75;;;;;;;;;;5051754;28;20200;-66
2022/08/06 04:57:27;;;;;;;4.35;3.40;;;;;;;;;;5052792;28;20250;-65
2022/08/06 04:59:52;;;;;;;8.35;3.90;;;;;;;;;;5056365;28;20205;-65
2022/08/06 05:02:18;;;;;;;6.93;3.80;;;;;;;;;;5054301;28;20276;-65
2022/08/06 05:04:44;;;;;;;8.15;3.60;;;;;;;;;;5055637;28;20181;-66
2022/08/06 05:07:16;;;;;;;5.93;3.35;;;;;;;;;;5057265;28;20584;-66
2022/08/06 05:09:42;;;;;;;8.35;3.95;;;;;;;;;;5064202;28;20181;-66
2022/08/06 05:12:19;;;;;;;7.38;3.80;;;;;;;;;;5060868;28;20181;-66
2022/08/06 05:15:01;;;;;;;5.70;4.10;;;;;;;;;;5049869;28;20177;-66
2022/08/06 05:17:32;;;;;;;7.13;4.30;;;;;;;;;;5053821;28;20217;-66
2022/08/06 05:20:16;;;;;;;5.90;4.28;;;;;;;;;;5056979;28;20710;-66
2022/08/06 05:22:46;;;;;;;7.85;4.20;;;;;;;;;;5054732;28;20179;-66
2022/08/06 05:25:11;;;;;;;8.25;4.97;;;;;;;;;;5055602;28;20185;-66
2022/08/06 05:27:40;;;;;;;7.68;4.47;;;;;;;;;;5054633;28;20225;-66
2022/08/06 05:30:06;;;;;;;6.95;4.50;;;;;;;;;;5056397;28;20181;-66
2022/08/06 05:32:39;;;;;;;5.38;3.65;;;;;;;;;;5060244;28;20712;-66
2022/08/06 05:35:05;;;;;;;7.75;4.38;;;;;;;;;;5052618;28;20181;-66
2022/08/06 05:37:30;;;;;;;8.70;4.13;;;;;;;;;;5050523;28;20653;-66
2022/08/06 05:39:55;;;;;;;6.07;4.07;;;;;;;;;;5053828;28;20215;-66
2022/08/06 05:42:20;;;;;;;9.00;4.25;;;;;;;;;;5055523;28;20192;-66
2022/08/06 05:44:46;;;;;;;6.30;3.65;;;;;;;;;;5053953;28;20188;-66
2022/08/06 05:47:14;;;;;;;6.30;3.80;;;;;;;;;;5053324;28;20545;-66
2022/08/06 05:49:47;;;;;;;5.97;3.20;;;;;;;;;;5051180;28;20221;-66
2022/08/06 05:52:24;;;;;;;5.88;3.50;;;;;;;;;;5058380;28;20213;-66
2022/08/06 05:54:58;;;;;;;4.57;2.78;;;;;;;;;;5057516;28;20209;-66
2022/08/06 05:57:37;;;;;;;5.30;2.97;;;;;;;;;;5057597;28;20203;-65
2022/08/06 06:00:09;;;;;;;7.07;3.33;;;;;;;;;;5049631;28;20212;-65
2022/08/06 06:02:38;;;;;;;8.15;3.45;;;;;;;;;;5054029;28;20546;-65
2022/08/06 06:05:05;;;;;;;5.57;2.47;;;;;;;;;;5053606;28;20572;-65
2022/08/06 06:07:31;;;;;;;3.78;2.58;;;;;;;;;;5058854;28;20268;-66
2022/08/06 06:09:57;;;;;;;7.03;2.78;;;;;;;;;;5054269;28;20256;-65
2022/08/06 06:12:23;;;;;;;7.78;2.25;;;;;;;;;;5057734;28;20548;-65
2022/08/06 06:14:50;;;;;;;3.17;1.73;;;;;;;;;;5054558;28;20189;-66
2022/08/06 06:17:46;;;;;;;5.13;2.00;;;;;;;;;;5049127;28;20201;-66
2022/08/06 06:20:29;;;;;;;5.05;1.50;;;;;;;;;;5055778;28;20200;-66
2022/08/06 06:23:13;;;;;;;3.35;1.30;;;;;;;;;;5063910;28;20529;-66
2022/08/06 06:26:15;;;;;;;3.92;1.35;;;;;;;;;;5049635;28;20181;-66
2022/08/06 06:29:07;;;;;;;3.70;1.65;;;;;;;;;;5054738;28;20877;-66
2022/08/06 06:31:57;;;;;;;5.03;1.52;;;;;;;;;;5060530;28;20287;-66
2022/08/06 06:34:29;;;;;;;2.03;1.20;;;;;;;;;;5051016;28;20192;-66
2022/08/06 06:37:01;;;;;;;7.13;1.17;;;;;;;;;;5053115;28;20541;-65
2022/08/06 06:40:06;;;;;;;1.13;0.73;;;;;;;;;;5056494;28;20565;-65
2022/08/06 06:42:40;;;;;;;2.90;0.70;;;;;;;;;;5016898;28;20336;-65
2022/08/06 06:45:21;;;;;;;2.58;0.70;;;;;;;;;;5065145;28;20184;-65
2022/08/06 06:47:55;;;;;;;1.63;0.52;;;;;;;;;;5060111;28;20199;-65
2022/08/06 06:50:28;;;;;;;3.00;0.30;;;;;;;;;;5066565;28;20243;-65
2022/08/06 06:52:55;;;;;;;2.58;0.50;;;;;;;;;;5059584;28;20186;-65
2022/08/06 06:55:34;;;;;;;3.30;0.60;;;;;;;;;;5057220;28;20173;-65
2022/08/06 06:58:10;;;;;;;1.40;0.60;;;;;;;;;;5056361;28;20188;-65
2022/08/06 07:00:37;;;;;;;0.73;0.38;;;;;;;;;;5050227;28;20200;-65
2022/08/06 07:03:04;;;;;;;2.55;0.50;;;;;;;;;;5052518;28;20625;-65
2022/08/06 07:05:31;;;;;;;0.65;0.43;;;;;;;;;;5054459;28;20211;-65
2022/08/06 07:07:59;;;;;;;4.57;0.50;;;;;;;;;;5056429;28;20209;-66
2022/08/06 07:10:26;;;;;;;3.33;0.57;;;;;;;;;;5061292;28;20175;-66
2022/08/06 07:12:53;;;;;;;1.08;0.38;;;;;;;;;;5061470;28;20185;-66
2022/08/06 07:15:21;;;;;;;0.82;0.40;;;;;;;;;;5056142;28;20180;-66
2022/08/06 07:17:49;;;;;;;1.98;0.63;;;;;;;;;;5048286;28;20192;-66
2022/08/06 07:20:19;;;;;;;3.20;0.60;;;;;;;;;;5053663;28;20216;-65
2022/08/06 07:22:45;;;;;;;4.20;0.55;;;;;;;;;;5055394;28;20868;-66
2022/08/06 07:25:13;;;;;;;2.45;0.60;;;;;;;;;;5051804;28;20177;-66
2022/08/06 07:27:44;;;;;;;4.00;0.70;;;;;;;;;;5048747;28;20237;-66
2022/08/06 07:30:10;;;;;;;0.40;0.40;;;;;;;;;;5050331;28;20181;-66
2022/08/06 07:32:37;;;;;;;2.33;0.60;;;;;;;;;;5050983;28;20209;-66
2022/08/06 07:35:08;;;;;;;2.17;0.45;;;;;;;;;;5050947;28;20185;-66
2022/08/06 07:37:35;;;;;;;0.85;0.20;;;;;;;;;;5049552;28;20198;-67
2022/08/06 07:40:02;;;;;;;1.08;0.40;;;;;;;;;;5048620;28;20201;-68
2022/08/06 07:42:28;;;;;;;2.78;0.25;;;;;;;;;;5050688;28;20255;-66
2022/08/06 07:45:00;;;;;;;1.63;0.32;;;;;;;;;;5051069;28;20177;-64
2022/08/06 07:47:34;;;;;;;2.38;0.43;;;;;;;;;;5054590;28;20215;-66
2022/08/06 07:49:59;;;;;;;1.85;0.30;;;;;;;;;;5049065;28;20182;-65
2022/08/06 07:52:25;;;;;;;1.98;0.25;;;;;;;;;;5055242;28;20178;-65
2022/08/06 07:55:03;;;;;;;2.35;0.30;;;;;;;;;;4770460;28;10000874;-66
2022/08/06 07:57:31;;;;;;;4.22;1.15;;;;;;;;;;5054457;28;20415;-67
2022/08/06 07:59:56;;;;;;;1.60;0.28;;;;;;;;;;5060563;28;20194;-65
2022/08/06 08:02:23;;;;;;;2.95;0.40;;;;;;;;;;5054606;28;20187;-65
2022/08/06 08:07:33;;;;;;;2.80;0.63;;;;;;;;;;5066710;28;20203;-66
2022/08/06 08:10:00;;;;;;;1.85;0.40;;;;;;;;;;5057255;28;20657;-66
2022/08/06 08:12:26;;;;;;;2.78;0.35;;;;;;;;;;5047757;28;20376;-66
2022/08/06 08:14:52;;;;;;;2.05;0.45;;;;;;;;;;5060710;28;20177;-66
2022/08/06 08:17:18;;;;;;;2.15;0.38;;;;;;;;;;5051830;28;20309;-72
2022/08/06 08:19:44;;;;;;;0.63;0.30;;;;;;;;;;5066849;28;20731;-68
2022/08/06 08:22:15;;;;;;;1.90;0.50;;;;;;;;;;5064993;28;20196;-67
2022/08/06 08:24:46;;;;;;;2.78;0.38;;;;;;;;;;5062263;28;20181;-65
2022/08/06 08:27:11;;;;;;;3.30;0.47;;;;;;;;;;5068347;28;20246;-65
2022/08/06 08:29:38;;;;;;;1.48;0.65;;;;;;;;;;5057032;28;20649;-65
2022/08/06 08:32:05;;;;;;;1.40;0.30;;;;;;;;;;5053920;28;20216;-67
2022/08/06 08:34:31;;;;;;;3.00;0.30;;;;;;;;;;5060936;28;20189;-67
2022/08/06 08:36:57;;;;;;;1.98;0.40;;;;;;;;;;5057035;28;20213;-66
2022/08/06 08:39:23;;;;;;;1.20;0.40;;;;;;;;;;5055073;28;20208;-66
2022/08/06 08:42:17;;;;;;;1.75;0.38;;;;;;;;;;5051899;28;20641;-66
2022/08/06 08:44:44;;;;;;;1.02;0.50;;;;;;;;;;5048876;28;20741;-65
2022/08/06 08:47:13;;;;;;;3.28;0.63;;;;;;;;;;5054681;28;20239;-66
2022/08/06 08:49:41;;;;;;;3.90;0.52;;;;;;;;;;5051855;28;20217;-65
2022/08/06 08:52:09;;;;;;;0.47;0.30;;;;;;;;;;5055957;28;20773;-65
2022/08/06 08:54:36;;;;;;;3.20;0.47;;;;;;;;;;5050664;28;20602;-65
2022/08/06 08:57:05;;;;;;;3.35;1.17;;;;;;;;;;5053665;28;20185;-65
2022/08/06 08:59:32;;;;;;;3.33;0.50;;;;;;;;;;5050732;28;20204;-67
2022/08/06 09:01:58;;;;;;;3.90;0.50;;;;;;;;;;5052069;28;20223;-66
2022/08/06 09:04:25;;;;;;;2.75;0.70;;;;;;;;;;5051697;28;20189;-65
2022/08/06 09:06:50;;;;;;;6.22;0.68;;;;;;;;;;5050203;28;20181;-65
2022/08/06 09:09:16;;;;;;;1.02;0.40;;;;;;;;;;5052666;28;20174;-65
2022/08/06 09:11:42;;;;;;;3.30;0.52;;;;;;;;;;5052949;28;20661;-65
2022/08/06 09:14:08;;;;;;;4.85;0.68;;;;;;;;;;5051566;28;20186;-65
2022/08/06 09:16:35;;;;;;;2.47;0.50;;;;;;;;;;5052699;28;20637;-65
2022/08/06 09:19:02;;;;;;;2.15;0.45;;;;;;;;;;5048751;28;20256;-64
2022/08/06 09:21:28;;;;;;;3.58;0.95;;;;;;;;;;5053765;28;20238;-65
2022/08/06 09:23:54;;;;;;;1.92;0.52;;;;;;;;;;5056751;28;20260;-67
2022/08/06 09:26:20;;;;;;;1.65;0.50;;;;;;;;;;5051976;28;20256;-66
2022/08/06 09:28:45;;;;;;;2.85;0.47;;;;;;;;;;5054706;28;20193;-66
2022/08/06 09:31:12;;;;;;;1.08;0.40;;;;;;;;;;5055185;28;20193;-65
2022/08/06 09:33:41;;;;;;;1.70;0.43;;;;;;;;;;5054581;28;20264;-65
2022/08/06 09:36:10;;;;;;;3.00;0.43;;;;;;;;;;5051681;28;20276;-67
2022/08/06 09:38:47;;;;;;;2.00;0.30;;;;;;;;;;5048648;28;20265;-65
2022/08/06 09:41:14;;;;;;;0.82;0.30;;;;;;;;;;5051885;28;20259;-66
2022/08/06 09:43:40;;;;;;;1.58;0.60;;;;;;;;;;5057673;28;20633;-66
2022/08/06 09:46:07;;;;;;;4.00;0.80;;;;;;;;;;5060990;28;20762;-65
2022/08/06 09:48:33;;;;;;;2.78;0.60;;;;;;;;;;5052426;28;20190;-66
2022/08/06 09:50:58;;;;;;;3.60;0.57;;;;;;;;;;5053436;28;20392;-65
2022/08/06 09:53:24;;;;;;;1.63;0.43;;;;;;;;;;5052484;28;20680;-66
2022/08/06 09:55:54;;;;;;;3.50;0.65;;;;;;;;;;5052088;28;20196;-66
2022/08/06 09:58:46;;;;;;;3.50;0.60;;;;;;;;;;5047937;28;20184;-66
2022/08/06 10:01:20;;;;;;;3.97;0.65;;;;;;;;;;5053163;28;20248;-65
2022/08/06 10:03:46;;;;;;;3.80;0.65;;;;;;;;;;5052347;28;20272;-68
2022/08/06 10:06:20;;;;;;;4.45;0.80;;;;;;;;;;5052793;28;20263;-67
2022/08/06 10:08:46;;;;;;;1.75;0.47;;;;;;;;;;5064630;28;20203;-71
2022/08/06 10:11:12;;;;;;;1.25;0.38;;;;;;;;;;5055405;28;20180;-66
2022/08/06 10:13:38;;;;;;;8.20;0.75;;;;;;;;;;5051040;28;20256;-66
2022/08/06 10:16:26;;;;;;;1.35;0.32;;;;;;;;;;5055042;28;20354;-66
2022/08/06 10:18:52;;;;;;;3.15;0.50;;;;;;;;;;5049816;28;20185;-66
2022/08/06 10:21:22;;;;;;;1.88;0.43;;;;;;;;;;5055064;28;20678;-68
2022/08/06 10:23:54;;;;;;;0.45;0.30;;;;;;;;;;5048359;28;20180;-69
2022/08/06 10:26:25;;;;;;;0.20;0.20;;;;;;;;;;5048937;28;20664;-67
2022/08/06 10:28:52;;;;;;;1.30;0.40;;;;;;;;;;5051612;28;20173;-65
2022/08/06 10:31:18;;;;;;;1.70;0.60;;;;;;;;;;5050177;28;20211;-66
2022/08/06 10:33:47;;;;;;;2.60;0.50;;;;;;;;;;5059996;28;20188;-66
2022/08/06 10:36:15;;;;;;;3.47;0.90;;;;;;;;;;5048683;28;20785;-70
2022/08/06 10:38:45;;;;;;;3.28;0.50;;;;;;;;;;5051659;28;20229;-67
2022/08/06 10:41:12;;;;;;;2.50;0.68;;;;;;;;;;5051140;28;20198;-65
2022/08/06 10:43:38;;;;;;;1.60;0.40;;;;;;;;;;5051364;28;20184;-66
2022/08/06 10:46:06;;;;;;;2.00;0.50;;;;;;;;;;5051051;28;20190;-66
2022/08/06 10:48:34;;;;;;;2.35;0.50;;;;;;;;;;5054642;28;20185;-65
2022/08/06 10:50:59;;;;;;;1.35;0.63;;;;;;;;;;5050697;28;20418;-65
2022/08/06 10:53:25;;;;;;;2.53;0.60;;;;;;;;;;5051583;28;20207;-66
2022/08/06 10:55:51;;;;;;;1.20;0.38;;;;;;;;;;5047143;28;20185;-68
2022/08/06 10:58:17;;;;;;;3.67;0.70;;;;;;;;;;5049329;28;20181;-66
2022/08/06 11:00:44;;;;;;;2.33;0.43;;;;;;;;;;5053196;28;20236;-66
2022/08/06 11:03:22;;;;;;;1.80;0.57;;;;;;;;;;5046191;28;20209;-66
2022/08/06 11:05:59;;;;;;;2.38;0.40;;;;;;;;;;5052534;28;20223;-66
2022/08/06 11:08:45;;;;;;;1.33;0.63;;;;;;;;;;5054047;28;20294;-66
2022/08/06 11:11:35;;;;;;;1.25;0.50;;;;;;;;;;5050203;28;20173;-65
2022/08/06 11:14:08;;;;;;;0.43;0.40;;;;;;;;;;5049279;28;20629;-67
2022/08/06 11:16:35;;;;;;;2.45;0.50;;;;;;;;;;5051963;28;20185;-65
2022/08/06 11:19:09;;;;;;;3.10;0.50;;;;;;;;;;5053711;28;20238;-66
2022/08/06 11:21:45;;;;;;;2.47;0.50;;;;;;;;;;5057247;28;20669;-66
2022/08/06 11:24:13;;;;;;;2.97;0.57;;;;;;;;;;5054231;28;20269;-68
2022/08/06 11:26:44;;;;;;;2.85;0.77;;;;;;;;;;5058413;28;20236;-67
2022/08/06 11:29:15;;;;;;;2.25;0.50;;;;;;;;;;5050172;28;20185;-66
2022/08/06 11:31:46;;;;;;;1.42;0.50;;;;;;;;;;5057552;28;20193;-64
2022/08/06 11:34:14;;;;;;;1.60;0.60;;;;;;;;;;5053889;28;20485;-65
2022/08/06 11:36:58;;;;;;;0.98;0.50;;;;;;;;;;5053193;28;20177;-67
2022/08/06 11:39:27;;;;;;;1.55;0.70;;;;;;;;;;5052481;28;20281;-66
2022/08/06 11:42:01;;;;;;;1.60;0.70;;;;;;;;;;5058455;28;20188;-66
2022/08/06 11:44:31;;;;;;;4.15;0.70;;;;;;;;;;5051002;28;20178;-66
2022/08/06 11:47:09;;;;;;;0.45;0.45;;;;;;;;;;5055037;28;20176;-67
2022/08/06 11:49:42;;;;;;;1.60;0.70;;;;;;;;;;5062064;28;20181;-67
2022/08/06 11:52:08;;;;;;;1.10;0.57;;;;;;;;;;5059208;28;20205;-67
2022/08/06 11:55:04;;;;;;;1.27;0.50;;;;;;;;;;5050846;28;20223;-67
2022/08/06 11:57:30;;;;;;;2.25;0.80;;;;;;;;;;5049756;28;20193;-67
2022/08/06 11:59:56;;;;;;;2.88;0.75;;;;;;;;;;5054258;28;20197;-67
2022/08/06 12:02:39;;;;;;;1.42;0.60;;;;;;;;;;5056383;28;20570;-67
2022/08/06 12:05:25;;;;;;;2.55;0.60;;;;;;;;;;5071345;28;20196;-66
2022/08/06 12:08:18;;;;;;;1.23;0.60;;;;;;;;;;5057021;28;20186;-65
2022/08/06 12:11:23;;;;;;;1.92;0.68;;;;;;;;;;5051207;28;20217;-69
2022/08/06 12:13:49;;;;;;;3.70;0.70;;;;;;;;;;5052168;28;20387;-68
2022/08/06 12:16:29;;;;;;;1.30;0.60;;;;;;;;;;5063492;28;20271;-69
2022/08/06 12:18:55;;;;;;;1.15;0.57;;;;;;;;;;5050930;28;20177;-67
2022/08/06 12:21:22;;;;;;;2.25;0.60;;;;;;;;;;5054985;28;20264;-67
2022/08/06 12:23:50;;;;;;;0.77;0.40;;;;;;;;;;5051581;28;20166;-67
2022/08/06 12:26:15;;;;;;;1.30;0.57;;;;;;;;;;5061384;28;20237;-67
2022/08/06 12:28:41;;;;;;;2.13;0.60;;;;;;;;;;5057982;28;20173;-67
2022/08/06 12:31:07;;;;;;;1.98;0.63;;;;;;;;;;5059157;28;20645;-67
2022/08/06 12:33:40;;;;;;;1.65;0.73;;;;;;;;;;5056995;28;20185;-67
2022/08/06 12:36:06;;;;;;;1.52;0.80;;;;;;;;;;5057604;28;20185;-67
2022/08/06 12:38:33;;;;;;;1.98;0.77;;;;;;;;;;5060331;28;20273;-68
2022/08/06 12:41:08;;;;;;;3.20;0.70;;;;;;;;;;5053763;28;20204;-67
2022/08/06 12:43:36;;;;;;;1.65;1.00;;;;;;;;;;5057188;28;20193;-68
2022/08/06 12:46:03;;;;;;;2.90;1.25;;;;;;;;;;5054815;28;20515;-68
2022/08/06 12:48:29;;;;;;;1.98;0.93;;;;;;;;;;5056038;28;20594;-67
2022/08/06 12:51:03;;;;;;;2.67;1.00;;;;;;;;;;5052553;28;20268;-66
2022/08/06 12:53:29;;;;;;;2.88;1.50;;;;;;;;;;5056209;28;20188;-65
2022/08/06 12:55:55;;;;;;;4.00;1.20;;;;;;;;;;5054336;28;20188;-68
2022/08/06 12:58:26;;;;;;;3.72;2.47;;;;;;;;;;5054814;28;20213;-66
2022/08/06 13:00:57;;;;;;;2.88;1.15;;;;;;;;;;5053509;28;20260;-66
2022/08/06 13:03:24;;;;;;;2.40;1.00;;;;;;;;;;5052293;28;20589;-66
2022/08/06 13:05:52;;;;;;;1.40;0.80;;;;;;;;;;5054631;28;20199;-66
2022/08/06 13:08:19;;;;;;;5.22;0.77;;;;;;;;;;5054803;28;20220;-66
2022/08/06 13:10:49;;;;;;;2.50;0.90;;;;;;;;;;5049923;28;20184;-67
2022/08/06 13:13:15;;;;;;;1.65;1.00;;;;;;;;;;5049535;28;20188;-66
2022/08/06 13:15:41;;;;;;;4.15;1.30;;;;;;;;;;5053173;28;20268;-67
2022/08/06 13:18:13;;;;;;;2.03;1.17;;;;;;;;;;5053188;28;20606;-66
2022/08/06 13:20:43;;;;;;;1.30;1.10;;;;;;;;;;5052672;28;20284;-67
2022/08/06 13:23:10;;;;;;;2.22;1.30;;;;;;;;;;5052934;28;20228;-66
2022/08/06 13:25:47;;;;;;;2.55;1.20;;;;;;;;;;5053663;28;20701;-67
2022/08/06 13:28:15;;;;;;;1.77;1.05;;;;;;;;;;5056484;28;20563;-66
2022/08/06 13:30:45;;;;;;;3.55;1.15;;;;;;;;;;5050552;28;20260;-67
2022/08/06 13:33:31;;;;;;;2.38;1.00;;;;;;;;;;5053409;28;20185;-66
2022/08/06 13:36:08;;;;;;;1.86;0.92;;;;;;;;;;4601219;28;10002853;-66
2022/08/06 13:38:34;;;;;;;1.73;0.85;;;;;;;;;;5056112;28;20249;-67
2022/08/06 13:41:01;;;;;;;3.67;1.63;;;;;;;;;;5056902;28;20197;-70
2022/08/06 13:43:55;;;;;;;2.95;1.60;;;;;;;;;;5062821;28;20184;-69
2022/08/06 13:46:27;;;;;;;4.03;1.30;;;;;;;;;;5040637;28;20218;-77
2022/08/06 13:48:55;;;;;;;2.33;1.67;;;;;;;;;;5060703;28;20184;-74
2022/08/06 13:51:22;;;;;;;1.60;1.40;;;;;;;;;;5054395;28;20184;-68
2022/08/06 13:53:47;;;;;;;2.65;1.40;;;;;;;;;;5063572;28;20261;-68
2022/08/06 13:56:14;;;;;;;1.88;1.25;;;;;;;;;;5060140;28;20311;-67
2022/08/06 13:58:40;;;;;;;2.05;1.52;;;;;;;;;;5060272;28;20179;-69
2022/08/06 14:01:05;;;;;;;3.65;1.75;;;;;;;;;;5059949;28;20205;-67
2022/08/06 14:03:32;;;;;;;1.88;1.30;;;;;;;;;;5051613;28;20184;-67
2022/08/06 14:05:57;;;;;;;2.88;1.80;;;;;;;;;;5055404;28;20264;-68
2022/08/06 14:08:23;;;;;;;1.70;1.30;;;;;;;;;;5058102;28;20306;-68
2022/08/06 14:10:48;;;;;;;2.40;1.40;;;;;;;;;;5059154;28;20172;-67
2022/08/06 14:13:17;;;;;;;2.90;1.60;;;;;;;;;;5059086;28;20234;-69
2022/08/06 14:15:43;;;;;;;2.70;1.75;;;;;;;;;;5053482;28;20182;-67
2022/08/06 14:18:09;;;;;;;2.17;1.42;;;;;;;;;;5048308;28;20188;-68
2022/08/06 14:20:35;;;;;;;2.33;1.45;;;;;;;;;;5049255;28;20197;-68
2022/08/06 14:23:00;;;;;;;4.57;1.50;;;;;;;;;;5059163;28;20217;-67
2022/08/06 14:25:26;;;;;;;3.85;1.95;;;;;;;;;;5054094;28;20632;-69
2022/08/06 14:27:52;;;;;;;3.60;1.50;;;;;;;;;;5049487;28;20209;-70
2022/08/06 14:30:19;;;;;;;1.40;1.30;;;;;;;;;;5053287;28;20193;-67
2022/08/06 14:32:45;;;;;;;2.33;1.58;;;;;;;;;;5051441;28;20250;-68
2022/08/06 14:35:10;;;;;;;3.97;1.58;;;;;;;;;;5058189;28;20715;-68
2022/08/06 14:37:36;;;;;;;2.00;1.60;;;;;;;;;;5049120;28;20177;-68
2022/08/06 14:40:03;;;;;;;1.83;1.40;;;;;;;;;;5054306;28;20205;-67
2022/08/06 14:45:13;;;;;;;2.90;1.63;;;;;;;;;;5047927;28;20200;-69
2022/08/06 14:47:38;;;;;;;1.80;1.40;;;;;;;;;;5047297;28;20169;-69
2022/08/06 14:50:04;;;;;;;2.90;1.40;;;;;;;;;;5048331;28;20182;-67
2022/08/06 14:52:30;;;;;;;2.60;1.40;;;;;;;;;;5049349;28;20255;-67
2022/08/06 14:54:55;;;;;;;3.00;1.40;;;;;;;;;;5052860;28;20187;-70
2022/08/06 14:57:20;;;;;;;1.92;1.23;;;;;;;;;;5049438;28;20181;-67
2022/08/06 14:59:46;;;;;;;2.53;1.42;;;;;;;;;;5049326;28;20204;-67
2022/08/06 15:02:12;;;;;;;1.70;1.30;;;;;;;;;;5054824;28;20216;-67
2022/08/06 15:04:38;;;;;;;3.63;1.40;;;;;;;;;;5048709;28;20181;-67